Observations for Trim Patrick St
| Time | AQI | Temp °C | Hum % | Pres Pa | CO μg/m³ | H₂S μg/m³ | NO μg/m³ | NO₂ μg/m³ | O₃ μg/m³ | SO₂ μg/m³ | PM1 μg/m³ | PM2.5 μg/m³ | PM10 μg/m³ |
|---|---|---|---|---|---|---|---|---|---|---|---|---|---|
| Wednesday 26 August 2026 | |||||||||||||
| 21:09 | 3 | 18.9 | 72 | 38,459 | 0 | 14.37 | 0.76 | 33.68 | 59.37 | 0.86 | 14 | 21.54 | 23.69 |
| 21:08 | 3 | 18.9 | 72 | 38,459 | 0 | 15.29 | 0.86 | 35.12 | 60.11 | 0.83 | 13.14 | 22.28 | 24.51 |
| 21:07 | 3 | 18.9 | 72 | 38,459 | 0 | 16.63 | 0.91 | 45.88 | 75.16 | 0.01 | 16.57 | 22.29 | 24.52 |
| 21:06 | 3 | 19 | 71 | 38,459 | 0 | 15.05 | 1.05 | 39.73 | 59.44 | 1.08 | 14.86 | 21.58 | 23.74 |
| 21:05 | 3 | 19 | 71 | 38,458 | 0 | 15.82 | 1.04 | 40.45 | 58.73 | 0 | 14.86 | 23.05 | 25.36 |
| 21:04 | 3 | 19.1 | 71 | 38,457 | 0 | 14.58 | 0.97 | 37.17 | 60.33 | 0.57 | 14.86 | 22.35 | 24.58 |
| 21:03 | 3 | 19.1 | 71 | 38,456 | 0 | 15.19 | 0.82 | 43.99 | 57.71 | 0.06 | 15.71 | 20.18 | 22.2 |
| 21:02 | 3 | 19.1 | 71 | 38,454 | 0 | 17.1 | 0.8 | 35.74 | 60.88 | 0.68 | 14 | 23.08 | 25.38 |
| 21:01 | 3 | 19.2 | 71 | 38,452 | 0.27 | 18.84 | 0.57 | 44.66 | 59.36 | 1.97 | 15.71 | 22.37 | 24.61 |
| 21:00 | 3 | 19.2 | 70 | 38,449 | 0 | 14.9 | 0.59 | 37.84 | 63.44 | 0.96 | 14.86 | 22.4 | 24.64 |
| 20:59 | 3 | 19.2 | 71 | 38,445 | 0 | 14.16 | 0.64 | 33.53 | 67.19 | 0.48 | 14 | 22.39 | 24.63 |
| 20:58 | 3 | 19.3 | 70 | 38,440 | 0 | 14.69 | 0.68 | 33.11 | 69 | 1.35 | 14 | 19.52 | 21.47 |
| 20:57 | 3 | 19.3 | 70 | 38,433 | 0 | 15.42 | 0.58 | 34.56 | 68.17 | 1.32 | 12.29 | 19.53 | 21.49 |
| 20:56 | 3 | 19.4 | 70 | 38,423 | 0 | 15.29 | 0.52 | 34.5 | 70.18 | 1.43 | 15.71 | 21.7 | 23.88 |
| 20:55 | 3 | 19.5 | 70 | 38,410 | 0 | 16.05 | 0.53 | 41.27 | 64.54 | 1.59 | 13.14 | 21 | 23.09 |
| 20:54 | 3 | 19.5 | 70 | 38,394 | 0 | 15.53 | 0.54 | 30.8 | 64.65 | 0.38 | 15.71 | 21.02 | 23.12 |
| 20:52 | 3 | 19.5 | 69 | 38,342 | 0 | 18.21 | 0.62 | 53.15 | 60.18 | 0.29 | 15.71 | 22.53 | 24.78 |
| 20:51 | 3 | 19.6 | 69 | 38,302 | 0 | 18.34 | 0.78 | 45.19 | 61.18 | 0 | 15.71 | 21.85 | 24.03 |
| 20:50 | 3 | 19.7 | 69 | 38,250 | 0 | 19.18 | 0.76 | 56.29 | 82.13 | 0.19 | 13.14 | 21.16 | 23.28 |
| 20:49 | 3 | 19.7 | 69 | 38,179 | 0 | 18.26 | 0.77 | 46.58 | 77.98 | 0.05 | 14.86 | 21.1 | 23.22 |